Terminal Aerodrome Forecast
Issued by NWS Blacksburg, VA

Home | Current Version | Previous Version | Text Only | Print | Product List | Glossary On
Versions: 1 2 3 4 5 6 7 8 9 10 11 12 13 14 15 16 17 18 19 20 21 22 23 24 25 26 27 28 29 30 31 32 33 34 35 36 37 38 39 40 41 42 43 44 45 46 47 48 49 50
000
FTUS41 KRNK 032058 AAA
TAFBLF
TAF AMD
KBLF 032058Z 0321/0418 28009G18KT P6SM VCSH SCT025 BKN060
     FM040200 30005KT P6SM SCT010 OVC018
     FM041100 29007KT P6SM VCSH OVC010
     FM041500 29007KT P6SM SCT010 BKN025=

USA.gov is the U.S. government's official web portal to all federal, state and local government web resources and services.